CYQM

Moncton/Greater Moncton International Airport

Airport
ICAO code
CYQM
IATA Code
YQM
Summary
ICAO Region
NAM
ICAO Territory
Location

Dieppe, New Brunswick,

Serving
Moncton
Elevation
232 ft
Coordinates
46° 6' 44" N , 64° 40' 43" W
KCC
Metar
Observation
CYQM 300700Z 23006KT 15SM SKC 05/04 A3030 RMK SLP264
Station
Moncton, N. B.
Date/Time
2022-09-30 07:00:00
Wind direction
230°
Wind speed
06 kts
Lowest cloud amount
n/a
Temperature
5°C
Dew point
4°C
Humidity
93%
Weather condition
n/a

Description

Moncton/Greater Moncton International Airport is located in the city of Dieppe 4 nm east northeast of downtown Moncton, New Brunswick, Canada

Climatology

Humid Continental climate (Köppen climate classification Dfb) - Variable weather patterns and a large seasonal temperature variance. Summers are often warm and humid with frequent thunderstorms and winters can be very cold with frequent snowfall and persistent snow cover.

Runways

Designator Length Width Surface Rops
6/24 1875 61 ASP Yes/Yes
11/29 2438 61 ASP Yes/Yes

Airport map

Aerial View

Airport accidents

SKYbrary Partners:

Safety knowledge contributed by: